Time;durP1;ratioP1;P1;durP2;ratioP2;P2;SDS_P1;SDS_P2;PMS_P1;PMS_P2;Temp;Humidity;BMP_temperature;BMP_pressure;BME280_temperature;BME280_humidity;BME280_pressure;Samples;Min_cycle;Max_cycle;Signal;HPM_P1;HPM_P2
2023/09/28 00:01:18;;;;;;;5.30;3.20;;;;;;;20.17;64.43;101217.16;5045053;28;20379;-71
2023/09/28 00:03:48;;;;;;;5.68;3.45;;;;;;;20.24;63.98;101237.22;5040631;28;20036;-71
2023/09/28 00:06:14;;;;;;;4.50;3.20;;;;;;;20.30;63.60;101226.00;5046694;28;20094;-71
2023/09/28 00:08:39;;;;;;;4.55;3.47;;;;;;;20.29;63.73;101232.34;5041520;28;20513;-71
2023/09/28 00:11:05;;;;;;;5.13;3.38;;;;;;;20.28;63.97;101235.97;5049676;28;20033;-71
2023/09/28 00:13:30;;;;;;;8.48;3.60;;;;;;;20.26;63.81;101221.81;5023279;28;20459;-71
2023/09/28 00:15:56;;;;;;;3.92;3.53;;;;;;;20.25;64.32;101227.31;5038947;28;20468;-71
2023/09/28 00:18:21;;;;;;;5.47;3.28;;;;;;;20.23;64.10;101222.03;5037059;28;20529;-71
2023/09/28 00:20:47;;;;;;;5.50;3.20;;;;;;;20.20;64.12;101235.72;5040014;28;20456;-71
2023/09/28 00:23:12;;;;;;;4.97;3.33;;;;;;;20.22;63.85;101236.44;5042861;28;20057;-71
2023/09/28 00:25:38;;;;;;;3.45;2.95;;;;;;;20.22;63.91;101231.09;5042106;28;20025;-71
2023/09/28 00:28:05;;;;;;;3.40;3.10;;;;;;;20.20;64.15;101238.41;5049747;28;20113;-71
2023/09/28 00:30:31;;;;;;;3.58;3.28;;;;;;;20.17;64.51;101244.00;5058323;28;20516;-71
2023/09/28 00:32:56;;;;;;;3.95;2.90;;;;;;;20.17;64.13;101249.34;5052131;28;20116;-71
2023/09/28 00:35:23;;;;;;;5.57;3.20;;;;;;;20.16;64.62;101249.47;5048840;28;20047;-71
2023/09/28 00:37:49;;;;;;;10.70;3.13;;;;;;;20.13;64.43;101255.91;5052203;28;20481;-71
2023/09/28 00:40:33;;;;;;;4.65;3.25;;;;;;;20.05;64.83;101253.81;5051347;28;20039;-71
2023/09/28 00:43:00;;;;;;;4.78;3.30;;;;;;;19.99;65.38;101246.19;5047888;28;20480;-70
2023/09/28 00:45:27;;;;;;;7.68;3.75;;;;;;;19.95;65.56;101259.94;5043583;28;20492;-70
2023/09/28 00:48:02;;;;;;;5.53;3.67;;;;;;;19.90;65.45;101267.47;5052236;28;20469;-71
2023/09/28 00:50:31;;;;;;;7.80;3.65;;;;;;;19.84;66.20;101274.16;5062838;28;20502;-70
2023/09/28 00:53:02;;;;;;;6.13;3.60;;;;;;;19.78;66.29;101270.09;5043987;28;20029;-71
2023/09/28 00:55:29;;;;;;;4.73;3.30;;;;;;;19.72;66.12;101273.19;5042865;28;20143;-71
2023/09/28 00:58:00;;;;;;;5.38;3.47;;;;;;;19.66;67.18;101265.59;5059011;28;20428;-71
2023/09/28 01:00:31;;;;;;;3.60;3.08;;;;;;;19.56;66.83;101261.84;5052895;28;20481;-71
2023/09/28 01:02:59;;;;;;;3.60;2.90;;;;;;;19.47;67.14;101271.38;5050239;28;20048;-71
2023/09/28 01:05:39;;;;;;;4.05;3.33;;;;;;;19.42;67.61;101256.59;5044393;28;20093;-71
2023/09/28 01:08:06;;;;;;;5.47;3.38;;;;;;;19.34;67.78;101255.28;5051437;28;20140;-71
2023/09/28 01:10:35;;;;;;;5.07;3.47;;;;;;;19.28;67.92;101249.50;5043377;28;20033;-71
2023/09/28 01:13:06;;;;;;;4.43;2.88;;;;;;;19.16;68.39;101253.91;5052473;28;20043;-71
2023/09/28 01:15:32;;;;;;;3.47;3.15;;;;;;;19.15;68.64;101262.91;5051651;28;20265;-71
2023/09/28 01:17:58;;;;;;;3.85;3.25;;;;;;;19.11;68.71;101275.66;5045131;28;20052;-71
2023/09/28 01:20:34;;;;;;;4.75;3.35;;;;;;;19.07;68.86;101266.13;5053892;28;20532;-71
2023/09/28 01:22:59;;;;;;;7.75;3.63;;;;;;;19.05;69.07;101264.50;5052811;28;20025;-71
2023/09/28 01:25:26;;;;;;;5.40;3.38;;;;;;;18.99;69.14;101270.31;5047615;28;20086;-71
2023/09/28 01:27:52;;;;;;;7.57;3.30;;;;;;;18.93;69.42;101263.56;5051966;28;20028;-71
2023/09/28 01:30:18;;;;;;;4.95;3.40;;;;;;;18.90;69.31;101265.56;5051001;28;20027;-71
2023/09/28 01:32:43;;;;;;;4.80;3.58;;;;;;;18.87;69.42;101272.00;5044976;28;20025;-71
2023/09/28 01:35:11;;;;;;;3.70;3.00;;;;;;;18.83;69.43;101271.31;5047692;28;20032;-71
2023/09/28 01:37:54;;;;;;;5.95;3.28;;;;;;;18.83;69.81;101271.31;5045089;28;20017;-71
2023/09/28 01:40:19;;;;;;;5.90;3.58;;;;;;;18.78;70.03;101260.06;5049166;28;20425;-71
2023/09/28 01:42:44;;;;;;;5.28;3.55;;;;;;;18.82;70.41;101258.03;5046013;28;20051;-71
2023/09/28 01:45:11;;;;;;;4.57;3.17;;;;;;;18.78;70.34;101268.09;5055670;28;20111;-71
2023/09/28 01:47:37;;;;;;;7.05;3.80;;;;;;;18.76;70.30;101274.53;5056291;28;20055;-71
2023/09/28 01:50:03;;;;;;;3.53;2.85;;;;;;;18.71;70.47;101274.00;5050055;28;20059;-71
2023/09/28 01:52:28;;;;;;;5.57;3.47;;;;;;;18.76;70.94;101280.75;5048605;28;20037;-71
2023/09/28 01:54:54;;;;;;;4.25;3.30;;;;;;;18.76;70.37;101274.53;5043089;28;20104;-71
2023/09/28 01:57:19;;;;;;;4.82;3.28;;;;;;;18.71;70.00;101288.25;5038587;28;20100;-71
2023/09/28 01:59:45;;;;;;;4.65;3.47;;;;;;;18.72;70.99;101289.97;5051415;28;20025;-71
2023/09/28 02:02:10;;;;;;;4.25;3.63;;;;;;;18.78;70.78;101283.31;5055067;28;20074;-71
2023/09/28 02:04:39;;;;;;;4.75;3.30;;;;;;;18.72;70.99;101289.97;5042041;28;20029;-71
2023/09/28 02:07:04;;;;;;;5.28;3.22;;;;;;;18.69;71.04;101295.50;5049563;28;21595;-71
2023/09/28 02:09:30;;;;;;;7.20;3.50;;;;;;;18.64;71.27;101297.59;5040209;28;20040;-71
2023/09/28 02:11:56;;;;;;;3.47;2.97;;;;;;;18.53;71.18;101300.16;5046053;28;20072;-71
2023/09/28 02:14:22;;;;;;;5.30;3.40;;;;;;;18.46;71.80;101304.19;5034546;28;20385;-71
2023/09/28 02:16:50;;;;;;;7.95;3.72;;;;;;;18.44;72.40;101300.75;5053072;28;20021;-71
2023/09/28 02:19:15;;;;;;;4.32;3.33;;;;;;;18.44;72.09;101303.44;5054036;28;20376;-71
2023/09/28 02:21:41;;;;;;;7.40;3.53;;;;;;;18.44;72.08;101303.44;5052863;28;20023;-71
2023/09/28 02:24:07;;;;;;;6.38;4.03;;;;;;;18.40;72.45;101301.91;5036488;28;20112;-71
2023/09/28 02:26:33;;;;;;;4.05;3.28;;;;;;;18.35;72.54;101300.41;5048435;28;20036;-71
2023/09/28 02:28:59;;;;;;;7.07;3.70;;;;;;;18.37;72.88;101297.59;5044427;28;20519;-71
2023/09/28 02:31:24;;;;;;;3.78;3.42;;;;;;;18.38;72.45;101307.38;5053715;28;20036;-71
2023/09/28 02:33:50;;;;;;;5.30;3.30;;;;;;;18.38;72.50;101310.06;5041813;28;20025;-71
2023/09/28 02:36:15;;;;;;;5.53;3.38;;;;;;;18.34;72.49;101306.72;5049360;28;20016;-71
2023/09/28 02:38:41;;;;;;;7.68;3.67;;;;;;;18.33;72.92;101305.00;5038724;28;20025;-71
2023/09/28 02:41:15;;;;;;;6.43;3.35;;;;;;;18.33;73.15;101305.00;5048492;28;20111;-71
2023/09/28 02:43:40;;;;;;;8.05;3.60;;;;;;;18.31;73.60;101311.41;5043510;28;20476;-71
2023/09/28 02:46:06;;;;;;;4.47;3.88;;;;;;;18.28;73.43;101316.97;5046689;28;20020;-71
2023/09/28 02:48:31;;;;;;;4.05;3.45;;;;;;;18.27;73.08;101310.72;5051475;28;20056;-71
2023/09/28 02:50:57;;;;;;;5.97;3.40;;;;;;;18.24;73.80;101316.31;5046756;28;20035;-71
2023/09/28 02:53:22;;;;;;;5.35;3.55;;;;;;;18.18;72.32;101323.84;5037969;28;20030;-71
2023/09/28 02:55:47;;;;;;;3.95;3.40;;;;;;;18.15;74.09;101321.41;5040088;28;20014;-71
2023/09/28 02:58:13;;;;;;;5.10;3.90;;;;;;;18.10;74.76;101322.53;5031654;28;20119;-71
2023/09/28 03:00:38;;;;;;;6.60;3.78;;;;;;;18.06;73.65;101315.66;5032412;28;20392;-71
2023/09/28 03:03:05;;;;;;;4.35;3.50;;;;;;;18.02;74.06;101316.81;5037613;28;20522;-71
2023/09/28 03:05:32;;;;;;;5.20;3.85;;;;;;;18.01;74.17;101316.94;5043419;28;20135;-71
2023/09/28 03:07:58;;;;;;;4.97;3.72;;;;;;;18.02;74.31;101326.66;5036532;28;20444;-71
2023/09/28 03:10:24;;;;;;;6.05;4.18;;;;;;;18.04;74.58;101330.09;5045866;28;20031;-71
2023/09/28 03:12:51;;;;;;;7.25;4.00;;;;;;;17.95;74.14;101333.34;5045478;28;20388;-71
2023/09/28 03:15:17;;;;;;;6.00;4.00;;;;;;;17.98;75.31;101335.84;5045151;28;20128;-71
2023/09/28 03:17:43;;;;;;;7.03;4.32;;;;;;;17.99;75.86;101338.41;5042051;28;20029;-71
2023/09/28 03:20:15;;;;;;;7.63;3.85;;;;;;;18.07;74.81;101336.09;5044712;28;20025;-71
2023/09/28 03:22:45;;;;;;;7.00;3.88;;;;;;;18.14;75.40;101333.91;5036939;28;20104;-71
2023/09/28 03:25:16;;;;;;;5.35;3.65;;;;;;;18.09;75.19;101334.22;5038304;28;20021;-71
2023/09/28 03:27:43;;;;;;;6.35;4.03;;;;;;;18.09;75.28;101344.91;5043931;28;20075;-71
2023/09/28 03:30:11;;;;;;;6.18;4.20;;;;;;;18.09;75.17;101341.34;5037377;28;20461;-71
2023/09/28 03:32:40;;;;;;;5.75;3.75;;;;;;;18.07;75.04;101346.81;5058052;28;20041;-71
2023/09/28 03:35:12;;;;;;;5.90;4.53;;;;;;;18.02;75.33;101343.56;5038323;28;20047;-71
2023/09/28 03:37:38;;;;;;;6.55;3.88;;;;;;;18.03;75.37;101349.78;5039987;28;20048;-71
2023/09/28 03:40:11;;;;;;;6.55;4.20;;;;;;;18.05;75.94;101355.91;5037388;28;20489;-71
2023/09/28 03:42:43;;;;;;;6.22;4.38;;;;;;;18.03;74.97;101356.00;5035822;28;20100;-71
2023/09/28 03:45:16;;;;;;;5.63;4.80;;;;;;;17.99;76.27;101358.94;5042349;28;20036;-71
2023/09/28 03:47:42;;;;;;;5.55;4.15;;;;;;;17.95;74.87;101373.47;5043897;28;20061;-71
2023/09/28 03:50:10;;;;;;;5.13;4.50;;;;;;;17.92;75.52;101382.56;5048565;28;20112;-71
2023/09/28 03:52:37;;;;;;;6.55;4.60;;;;;;;17.87;75.89;101384.66;5037355;28;20093;-71
2023/09/28 03:55:04;;;;;;;7.13;4.63;;;;;;;17.84;75.88;101385.72;5045931;28;20400;-71
2023/09/28 03:57:29;;;;;;;6.45;4.50;;;;;;;17.79;75.53;101377.09;5039918;28;20032;-71
2023/09/28 03:59:55;;;;;;;6.35;4.18;;;;;;;17.76;75.40;101377.28;5051811;28;20028;-71
2023/09/28 04:02:21;;;;;;;8.55;4.50;;;;;;;17.65;76.05;101374.41;5041708;28;20387;-70
2023/09/28 04:04:46;;;;;;;8.20;4.70;;;;;;;17.63;76.86;101381.66;5047260;28;20091;-71
2023/09/28 04:07:12;;;;;;;5.80;4.90;;;;;;;17.62;77.40;101384.41;5046584;28;20053;-71
2023/09/28 04:09:37;;;;;;;5.28;4.30;;;;;;;17.65;77.10;101386.91;5041654;28;20595;-71
2023/09/28 04:12:02;;;;;;;7.70;4.43;;;;;;;17.52;77.99;101387.63;5042788;28;20430;-71
2023/09/28 04:14:28;;;;;;;8.77;5.07;;;;;;;17.57;78.82;101384.69;5042509;28;20446;-70
2023/09/28 04:16:54;;;;;;;7.30;5.20;;;;;;;17.59;78.74;101391.69;5042611;28;20438;-71
2023/09/28 04:19:20;;;;;;;9.95;5.22;;;;;;;17.61;78.46;101386.22;5042241;28;20027;-71
2023/09/28 04:21:45;;;;;;;6.82;4.82;;;;;;;17.64;79.06;101385.19;5040908;28;20156;-70
2023/09/28 04:24:10;;;;;;;6.35;5.15;;;;;;;17.51;79.26;101385.94;5041023;28;20112;-71
2023/09/28 04:26:36;;;;;;;7.93;5.22;;;;;;;17.51;77.70;101393.09;5047660;28;20025;-71
2023/09/28 04:29:01;;;;;;;6.93;4.22;;;;;;;17.52;76.98;101387.63;5051354;28;20036;-71
2023/09/28 04:31:27;;;;;;;6.13;4.70;;;;;;;17.44;78.29;101392.63;5060122;28;20476;-71
2023/09/28 04:33:52;;;;;;;7.85;4.82;;;;;;;17.36;77.76;101388.69;5046617;28;20028;-71
2023/09/28 04:36:18;;;;;;;6.78;4.63;;;;;;;17.36;77.89;101386.84;5032151;28;20456;-71
2023/09/28 04:38:43;;;;;;;7.03;4.85;;;;;;;17.35;77.40;101393.16;5048129;28;20045;-70
2023/09/28 04:41:09;;;;;;;5.70;4.50;;;;;;;17.35;77.27;101401.19;5046771;28;20021;-70
2023/09/28 04:43:34;;;;;;;9.02;4.88;;;;;;;17.34;78.65;101396.75;5051058;28;20099;-71
2023/09/28 04:46:06;;;;;;;5.25;4.60;;;;;;;17.31;76.85;101391.63;5057930;28;20067;-71
2023/09/28 04:48:32;;;;;;;6.80;4.80;;;;;;;17.21;77.57;101403.81;5058593;28;20040;-71
2023/09/28 04:50:58;;;;;;;7.18;4.20;;;;;;;17.12;77.31;101401.69;5045461;28;20019;-71
2023/09/28 04:53:23;;;;;;;6.43;5.13;;;;;;;17.01;78.69;101411.16;5042856;28;20365;-71
2023/09/28 04:55:49;;;;;;;6.93;5.30;;;;;;;16.98;79.67;101403.34;5042681;28;20025;-71
2023/09/28 04:58:14;;;;;;;6.22;4.35;;;;;;;16.96;79.44;101407.91;5036524;28;20116;-71
2023/09/28 05:00:39;;;;;;;9.05;4.90;;;;;;;16.90;80.27;101412.75;5041230;28;20026;-71
2023/09/28 05:03:05;;;;;;;5.65;4.53;;;;;;;16.86;78.35;101412.03;5043845;28;20488;-71
2023/09/28 05:05:32;;;;;;;9.48;5.68;;;;;;;16.93;80.77;101428.59;5049046;28;20559;-71
2023/09/28 05:07:58;;;;;;;7.07;5.03;;;;;;;16.96;80.82;101439.09;5039554;28;20467;-70
2023/09/28 05:10:23;;;;;;;6.60;4.80;;;;;;;16.99;80.70;101434.44;5050111;28;20029;-71
2023/09/28 05:12:48;;;;;;;6.22;4.88;;;;;;;17.01;80.27;101443.22;5039995;28;20088;-71
2023/09/28 05:15:15;;;;;;;7.10;5.15;;;;;;;16.98;80.37;101447.91;5044119;28;20036;-71
2023/09/28 05:17:40;;;;;;;7.60;5.05;;;;;;;16.96;80.12;101444.44;5041338;28;20033;-71
2023/09/28 05:20:07;;;;;;;8.15;4.85;;;;;;;16.95;79.17;101453.41;5046030;28;20037;-71
2023/09/28 05:22:33;;;;;;;8.93;4.80;;;;;;;16.97;79.53;101462.19;5050109;28;20033;-71
2023/09/28 05:24:58;;;;;;;8.13;4.93;;;;;;;16.96;79.94;101468.47;5055107;28;20044;-71
2023/09/28 05:27:23;;;;;;;5.75;4.75;;;;;;;16.99;79.66;101468.31;5034900;28;20030;-71
2023/09/28 05:29:49;;;;;;;7.43;4.63;;;;;;;16.97;78.89;101465.72;5055795;28;20158;-71
2023/09/28 05:32:14;;;;;;;11.13;4.55;;;;;;;16.91;79.41;101474.06;5049199;28;20036;-71
2023/09/28 05:34:40;;;;;;;7.25;4.82;;;;;;;16.89;80.02;101478.66;5054973;28;20434;-71
2023/09/28 05:37:05;;;;;;;9.05;4.72;;;;;;;16.89;79.17;101485.81;5044614;28;20036;-71
2023/09/28 05:39:31;;;;;;;6.68;4.78;;;;;;;16.91;79.26;101481.22;5049249;28;20025;-71
2023/09/28 05:41:56;;;;;;;13.00;5.00;;;;;;;16.88;79.11;101481.38;5046099;28;20047;-71
2023/09/28 05:44:21;;;;;;;7.85;5.32;;;;;;;16.85;79.19;101485.13;5050929;28;20043;-71
2023/09/28 05:46:47;;;;;;;6.70;4.70;;;;;;;16.80;78.56;101484.50;5047940;28;20029;-71
2023/09/28 05:49:13;;;;;;;6.93;4.70;;;;;;;16.63;79.76;101496.09;5043394;28;20025;-71
2023/09/28 05:51:38;;;;;;;7.35;4.22;;;;;;;16.67;78.84;101499.44;5042776;28;20033;-71
2023/09/28 05:54:03;;;;;;;10.85;4.68;;;;;;;16.66;79.68;101492.41;5042401;28;20067;-71
2023/09/28 05:56:29;;;;;;;8.30;5.15;;;;;;;16.67;79.34;101497.63;5053780;28;20102;-71
2023/09/28 05:58:55;;;;;;;10.50;4.75;;;;;;;16.72;78.91;101503.63;5053471;28;20424;-71
2023/09/28 06:01:22;;;;;;;7.05;4.47;;;;;;;16.68;79.46;101510.03;5043779;28;20607;-71
2023/09/28 06:03:47;;;;;;;11.82;5.30;;;;;;;16.69;79.99;101511.75;5043350;28;20021;-71
2023/09/28 06:06:15;;;;;;;10.75;4.90;;;;;;;16.76;79.57;101520.34;5043608;28;20043;-70
2023/09/28 06:08:40;;;;;;;9.32;4.70;;;;;;;16.82;78.98;101528.84;5040628;28;20705;-71
2023/09/28 06:11:05;;;;;;;11.40;5.05;;;;;;;16.85;79.40;101521.66;5041745;28;20131;-70
2023/09/28 06:13:31;;;;;;;8.30;4.90;;;;;;;16.75;79.06;101516.81;5036204;28;20107;-71
2023/09/28 06:15:56;;;;;;;9.77;5.18;;;;;;;16.69;79.44;101508.22;5049148;28;20052;-70
2023/09/28 06:18:21;;;;;;;14.88;5.15;;;;;;;16.67;79.23;101511.00;5043952;28;20036;-71
2023/09/28 06:20:46;;;;;;;11.18;4.95;;;;;;;16.71;79.00;101517.88;5054069;28;20024;-71
2023/09/28 06:23:14;;;;;;;11.48;5.47;;;;;;;16.83;78.56;101511.03;5036467;28;20029;-71
2023/09/28 06:25:41;;;;;;;9.43;4.93;;;;;;;16.83;78.25;101525.28;5046770;28;20495;-70
2023/09/28 06:28:06;;;;;;;11.75;6.78;;;;;;;16.80;78.02;101528.09;5037715;28;20021;-71
2023/09/28 06:30:32;;;;;;;11.48;5.60;;;;;;;16.83;77.75;101532.38;5045766;28;20040;-71
2023/09/28 06:32:57;;;;;;;8.50;5.00;;;;;;;16.87;78.15;101535.75;5041978;28;20031;-70
2023/09/28 06:35:22;;;;;;;12.20;4.43;;;;;;;16.87;78.53;101535.75;5041884;28;20033;-71
2023/09/28 06:37:49;;;;;;;8.13;4.22;;;;;;;16.92;78.20;101547.91;5041440;28;20071;-71
2023/09/28 06:40:15;;;;;;;7.00;4.03;;;;;;;16.99;77.63;101554.66;5041495;28;20104;-71
2023/09/28 06:42:40;;;;;;;11.27;4.47;;;;;;;17.07;77.45;101557.75;5036354;28;20099;-71
2023/09/28 06:45:06;;;;;;;9.10;4.85;;;;;;;17.13;77.71;101545.88;5046678;28;20026;-71
2023/09/28 06:47:32;;;;;;;9.00;4.80;;;;;;;17.19;76.96;101545.50;5043653;28;20041;-71
2023/09/28 06:49:57;;;;;;;9.68;4.28;;;;;;;17.18;76.75;101542.94;5043566;28;20388;-71
2023/09/28 06:52:23;;;;;;;11.65;5.18;;;;;;;17.26;76.40;101543.38;5036791;28;20025;-71
2023/09/28 06:54:49;;;;;;;12.13;4.53;;;;;;;17.29;76.30;101560.06;5046344;28;20037;-71
2023/09/28 06:57:14;;;;;;;15.63;4.43;;;;;;;17.33;76.21;101558.94;5024302;28;20536;-71
2023/09/28 06:59:39;;;;;;;10.15;4.68;;;;;;;17.38;76.37;101563.16;5038230;28;20140;-71
2023/09/28 07:02:05;;;;;;;12.77;4.60;;;;;;;17.35;76.08;101566.91;5043741;28;20391;-71
2023/09/28 07:04:30;;;;;;;11.55;4.07;;;;;;;17.39;76.30;101567.56;5038531;28;20530;-70
2023/09/28 07:06:56;;;;;;;11.70;5.07;;;;;;;17.44;76.23;101577.06;5053599;28;20029;-71
2023/09/28 07:09:21;;;;;;;13.75;3.88;;;;;;;17.56;75.29;101586.19;5046049;28;20048;-70
2023/09/28 07:11:46;;;;;;;13.07;4.25;;;;;;;17.70;74.97;101591.59;5049913;28;20057;-71
2023/09/28 07:14:12;;;;;;;13.05;4.20;;;;;;;17.81;74.80;101591.00;5044091;28;20382;-71
2023/09/28 07:16:38;;;;;;;11.02;3.65;;;;;;;18.01;74.02;101582.66;5041633;28;20040;-71
2023/09/28 07:19:05;;;;;;;14.98;4.07;;;;;;;18.17;73.03;101587.09;5022303;28;20371;-71
2023/09/28 07:21:30;;;;;;;14.30;3.70;;;;;;;18.18;73.06;101570.94;5031793;28;20025;-71
2023/09/28 07:23:55;;;;;;;10.27;3.40;;;;;;;18.30;72.37;101588.94;5041326;28;20033;-71
2023/09/28 07:26:21;;;;;;;11.70;3.42;;;;;;;18.39;71.18;101589.34;5049674;28;20085;-71
2023/09/28 07:28:48;;;;;;;12.60;3.38;;;;;;;18.34;71.19;101563.72;5046907;28;20030;-71
2023/09/28 07:31:15;;;;;;;13.48;3.90;;;;;;;18.26;71.47;101565.13;5034971;28;20060;-71
2023/09/28 07:33:41;;;;;;;17.27;4.63;;;;;;;18.21;71.71;101576.13;5034140;28;20033;-71
2023/09/28 07:36:07;;;;;;;13.95;3.70;;;;;;;18.15;72.00;101581.00;5034060;28;20033;-70
2023/09/28 07:38:33;;;;;;;10.68;3.35;;;;;;;18.18;71.77;101595.03;5038271;28;20672;-71
2023/09/28 07:40:59;;;;;;;16.48;4.32;;;;;;;18.22;72.25;101615.31;5042427;28;20064;-71
2023/09/28 07:43:24;;;;;;;10.20;3.30;;;;;;;18.37;71.34;101602.81;5039035;28;20033;-71
2023/09/28 07:45:50;;;;;;;13.57;3.28;;;;;;;18.55;71.10;101603.50;5040668;28;20487;-71
2023/09/28 07:48:15;;;;;;;18.02;3.60;;;;;;;18.77;70.64;101613.78;5053754;28;20233;-71
2023/09/28 07:50:41;;;;;;;13.10;3.10;;;;;;;19.05;70.05;101611.09;5035582;28;20623;-71
2023/09/28 07:53:06;;;;;;;11.07;3.30;;;;;;;19.20;69.49;101611.94;5034451;28;20114;-71
2023/09/28 07:55:31;;;;;;;16.23;2.83;;;;;;;19.30;68.46;101604.16;5036401;28;20076;-71
2023/09/28 07:57:58;;;;;;;15.70;3.28;;;;;;;19.56;67.38;101607.84;5039952;28;20051;-71
2023/09/28 08:00:23;;;;;;;18.27;3.60;;;;;;;19.88;65.90;101609.28;5034323;28;20037;-71
2023/09/28 08:02:49;;;;;;;12.55;2.92;;;;;;;20.06;65.36;101625.13;5030331;28;20469;-71
2023/09/28 08:05:14;;;;;;;17.17;4.03;;;;;;;20.20;64.22;101626.88;5032902;28;20266;-71
2023/09/28 08:07:40;;;;;;;15.20;3.55;;;;;;;20.41;63.96;101632.56;5045260;28;20044;-71
2023/09/28 08:10:05;;;;;;;11.48;2.83;;;;;;;20.71;62.67;101635.00;5036683;28;20029;-71
2023/09/28 08:12:31;;;;;;;18.75;3.10;;;;;;;20.95;61.50;101635.97;5022259;28;20025;-71
2023/09/28 08:14:56;;;;;;;22.60;4.22;;;;;;;21.02;61.59;101631.84;5042420;28;20433;-71
2023/09/28 08:17:21;;;;;;;17.52;4.35;;;;;;;21.01;60.53;101635.50;5045706;28;20031;-71
2023/09/28 08:19:46;;;;;;;16.52;3.50;;;;;;;21.27;60.61;101632.78;5045789;28;20034;-71
2023/09/28 08:22:12;;;;;;;19.25;3.65;;;;;;;21.40;59.62;101633.63;5051455;28;20078;-71
2023/09/28 08:24:37;;;;;;;16.95;4.15;;;;;;;21.43;59.34;101632.56;5048213;28;20059;-71
2023/09/28 08:27:04;;;;;;;16.42;3.30;;;;;;;21.73;59.15;101624.91;5053453;28;20040;-71
2023/09/28 08:29:29;;;;;;;17.00;3.20;;;;;;;22.14;58.49;101629.88;5037872;28;20037;-71
2023/09/28 08:31:55;;;;;;;16.33;3.50;;;;;;;22.08;56.56;101643.78;5038872;28;20401;-71
2023/09/28 08:34:20;;;;;;;20.58;4.22;;;;;;;22.16;57.21;101648.63;5046154;28;20026;-71
2023/09/28 08:36:46;;;;;;;20.77;4.15;;;;;;;22.07;55.88;101644.75;5036957;28;20338;-71
2023/09/28 08:39:12;;;;;;;14.38;2.85;;;;;;;22.18;55.51;101649.34;5042187;28;20432;-71
2023/09/28 08:41:46;;;;;;;17.05;3.60;;;;;;;21.98;56.67;101653.53;5038539;28;20074;-71
2023/09/28 08:44:12;;;;;;;16.98;2.60;;;;;;;21.99;55.27;101651.69;5037625;28;20029;-71
2023/09/28 08:46:40;;;;;;;14.25;3.38;;;;;;;21.91;55.89;101660.34;5045690;28;20450;-72
2023/09/28 08:49:07;;;;;;;14.77;2.97;;;;;;;21.98;56.02;101668.84;5043897;28;20519;-71
2023/09/28 08:51:36;;;;;;;13.70;2.97;;;;;;;22.04;56.03;101674.59;5045722;28;20041;-71
2023/09/28 08:54:04;;;;;;;18.88;3.55;;;;;;;22.22;56.42;101677.78;5043606;28;20615;-71
2023/09/28 08:56:32;;;;;;;20.77;4.10;;;;;;;22.03;56.11;101675.59;5038779;28;20397;-71
2023/09/28 08:58:59;;;;;;;14.88;4.25;;;;;;;22.28;55.61;101671.91;5042174;28;20035;-71
2023/09/28 09:01:27;;;;;;;17.92;4.30;;;;;;;22.89;53.76;101675.28;5041837;28;20477;-71
2023/09/28 09:03:53;;;;;;;14.18;4.07;;;;;;;23.00;52.57;101671.75;5043287;28;20056;-71
2023/09/28 09:06:20;;;;;;;15.43;4.75;;;;;;;22.89;52.78;101682.50;5037165;28;20037;-72
2023/09/28 09:08:48;;;;;;;23.25;4.40;;;;;;;22.81;53.38;101677.69;5042661;28;20041;-71
2023/09/28 09:11:16;;;;;;;12.95;4.40;;;;;;;22.84;52.51;101680.13;5040933;28;20032;-71
2023/09/28 09:13:53;;;;;;;12.80;3.97;;;;;;;23.86;52.20;101687.25;5038723;28;20037;-71
2023/09/28 09:16:21;;;;;;;13.20;3.55;;;;;;;24.59;49.24;101684.75;5038208;28;20045;-71
2023/09/28 09:18:48;;;;;;;13.18;4.03;;;;;;;24.36;48.80;101681.28;5037735;28;20520;-71
2023/09/28 09:21:13;;;;;;;14.18;4.40;;;;;;;24.98;46.89;101675.00;5044362;28;20404;-71
2023/09/28 09:23:39;;;;;;;15.07;4.47;;;;;;;25.33;45.99;101671.06;5039388;28;20092;-71
2023/09/28 09:26:04;;;;;;;15.73;4.10;;;;;;;26.05;45.00;101670.81;5036487;28;20116;-71
2023/09/28 09:28:37;;;;;;;12.43;3.33;;;;;;;26.63;41.65;101673.50;5044899;28;20401;-71
2023/09/28 09:31:02;;;;;;;14.40;4.70;;;;;;;25.63;44.26;101676.41;5040447;28;20040;-72
2023/09/28 09:33:28;;;;;;;18.17;4.10;;;;;;;25.01;45.83;101690.13;5045046;28;20020;-71
2023/09/28 09:35:54;;;;;;;11.85;3.42;;;;;;;25.07;45.78;101689.59;5044645;28;20184;-73
2023/09/28 09:38:29;;;;;;;17.55;3.80;;;;;;;24.41;48.19;101698.84;5041797;28;20027;-72
2023/09/28 09:40:59;;;;;;;19.75;4.53;;;;;;;23.69;48.67;101687.81;5037930;28;20029;-72
2023/09/28 09:43:24;;;;;;;15.38;4.00;;;;;;;23.22;49.32;101686.19;5032384;28;20108;-72
2023/09/28 09:45:50;;;;;;;16.50;3.80;;;;;;;24.03;48.84;101685.00;5043685;28;20112;-73
2023/09/28 09:48:16;;;;;;;16.60;3.83;;;;;;;25.08;46.22;101694.03;5038189;28;20025;-73
2023/09/28 09:50:43;;;;;;;17.88;3.45;;;;;;;25.61;43.96;101688.41;5046459;28;20406;-72
2023/09/28 09:53:10;;;;;;;14.13;3.17;;;;;;;25.44;44.27;101693.47;5042906;28;20025;-72
2023/09/28 09:55:41;;;;;;;9.82;3.47;;;;;;;26.03;43.07;101693.63;5042968;28;20021;-72
2023/09/28 09:58:07;;;;;;;13.63;2.88;;;;;;;27.09;40.70;101696.28;5034510;28;20030;-72
2023/09/28 10:00:33;;;;;;;12.65;2.83;;;;;;;27.76;38.74;101696.97;5049290;28;20396;-72
2023/09/28 10:03:03;;;;;;;9.15;2.83;;;;;;;28.74;37.62;101703.31;5035335;28;20024;-72
2023/09/28 10:05:30;;;;;;;11.43;2.60;;;;;;;29.66;35.80;101701.81;5039840;28;20033;-72
2023/09/28 10:07:57;;;;;;;13.30;3.00;;;;;;;30.80;35.93;101691.00;5034589;28;20103;-72
2023/09/28 10:10:23;;;;;;;13.70;3.15;;;;;;;30.62;34.34;101688.44;5037133;28;20350;-72
2023/09/28 10:12:50;;;;;;;15.88;3.47;;;;;;;29.95;35.98;101683.13;5046793;28;20021;-73
2023/09/28 10:15:16;;;;;;;11.98;3.17;;;;;;;28.91;37.99;101683.34;5043308;28;20091;-73
2023/09/28 10:17:43;;;;;;;9.02;2.92;;;;;;;29.72;35.35;101666.56;5044912;28;20033;-72
2023/09/28 10:20:08;;;;;;;14.00;3.40;;;;;;;30.59;34.69;101660.63;5049932;28;20028;-73
2023/09/28 10:22:34;;;;;;;13.55;3.00;;;;;;;31.31;32.33;101655.22;5047902;28;20029;-73
2023/09/28 10:25:00;;;;;;;10.57;2.50;;;;;;;31.71;33.38;101648.66;5044827;28;20022;-72
2023/09/28 10:27:25;;;;;;;13.07;3.70;;;;;;;31.48;33.85;101649.50;5042488;28;20430;-73
2023/09/28 10:30:20;;;;;;;12.80;2.95;;;;;;;30.92;35.59;101645.94;5045201;28;20037;-72
2023/09/28 10:32:46;;;;;;;27.50;4.43;;;;;;;30.57;33.25;101659.97;5041418;28;20056;-74
2023/09/28 10:35:29;;;;;;;13.75;3.03;;;;;;;30.45;34.94;101652.16;5043713;28;20695;-74
2023/09/28 10:38:17;;;;;;;9.13;2.70;;;;;;;29.64;36.67;101660.22;5037298;28;20071;-72
2023/09/28 10:41:02;;;;;;;7.40;2.53;;;;;;;29.26;36.53;101665.16;5035985;28;20079;-72
2023/09/28 10:43:30;;;;;;;11.13;2.95;;;;;;;30.12;34.00;101664.03;5047652;28;20033;-72
2023/09/28 10:46:03;;;;;;;9.07;2.90;;;;;;;30.77;32.88;101663.19;5044416;28;20468;-73
2023/09/28 10:48:32;;;;;;;14.13;3.25;;;;;;;30.04;34.83;101669.50;5037986;28;20108;-72
2023/09/28 10:50:57;;;;;;;12.10;2.83;;;;;;;29.80;36.07;101664.84;5036541;28;20028;-72
2023/09/28 10:53:23;;;;;;;10.05;2.58;;;;;;;29.57;35.50;101670.09;5049949;28;20388;-72
2023/09/28 10:55:48;;;;;;;8.68;2.83;;;;;;;28.77;35.64;101666.75;5036639;28;20024;-72
2023/09/28 10:58:14;;;;;;;14.57;3.00;;;;;;;27.82;37.47;101663.72;5051185;28;20039;-72
2023/09/28 11:00:40;;;;;;;13.75;3.28;;;;;;;26.51;41.24;101671.94;5038954;28;20052;-72
2023/09/28 11:03:06;;;;;;;11.98;2.75;;;;;;;26.83;40.57;101677.03;5042964;28;20082;-72
2023/09/28 11:05:32;;;;;;;15.13;4.05;;;;;;;26.95;40.56;101674.97;5042593;28;20029;-71
2023/09/28 11:08:04;;;;;;;12.07;2.95;;;;;;;27.52;40.47;101685.78;5038116;28;20393;-72
2023/09/28 11:10:29;;;;;;;11.48;2.70;;;;;;;27.11;38.98;101687.97;5043304;28;20071;-72
2023/09/28 11:12:55;;;;;;;14.65;3.75;;;;;;;26.39;41.37;101686.63;5051433;28;20457;-72
2023/09/28 11:15:21;;;;;;;13.02;3.13;;;;;;;25.58;43.01;101699.50;5041612;28;20519;-72
2023/09/28 11:17:47;;;;;;;15.88;3.42;;;;;;;25.26;43.59;101713.19;5035684;28;20040;-72
2023/09/28 11:20:12;;;;;;;12.80;3.25;;;;;;;25.50;43.78;101694.75;5043944;28;20028;-72